createdAt,value
2019-04-28T00:01:22.660Z,99664.72
2019-04-28T00:03:51.625Z,99670.22
2019-04-28T00:06:21.133Z,99663.59
2019-04-28T00:08:49.556Z,99661.55
2019-04-28T00:11:17.951Z,99659.89
2019-04-28T00:13:46.348Z,99664.44
2019-04-28T00:16:14.750Z,99659.63
2019-04-28T00:18:43.137Z,99654.12
2019-04-28T00:21:20.793Z,99660.75
2019-04-28T00:24:08.731Z,99654.78
2019-04-28T00:26:38.774Z,99651.61
2019-04-28T00:29:07.467Z,99649.75
2019-04-28T00:31:36.184Z,99647.05
2019-04-28T00:34:04.711Z,99648.99
2019-04-28T00:36:33.094Z,99645.92
2019-04-28T00:39:01.892Z,99636.74
2019-04-28T00:41:30.914Z,99643.31
2019-04-28T00:43:59.351Z,99640.27
2019-04-28T00:46:31.121Z,99635.55
2019-04-28T00:48:59.662Z,99628.83
2019-04-28T00:51:28.042Z,99637.36
2019-04-28T00:53:56.527Z,99635.02
2019-04-28T00:56:24.913Z,99636.13
2019-04-28T00:58:53.306Z,99633.70
2019-04-28T01:01:40.709Z,99632.25
2019-04-28T01:04:11.751Z,99631.59
2019-04-28T01:06:39.940Z,99630.78
2019-04-28T01:09:08.561Z,99631.33
2019-04-28T01:11:37.024Z,99631.88
2019-04-28T01:14:05.483Z,99628.83
2019-04-28T01:16:39.857Z,99627.51
2019-04-28T01:19:15.627Z,99640.90
2019-04-28T01:22:02.166Z,99631.10
2019-04-28T01:24:30.553Z,99631.50
2019-04-28T01:27:00.487Z,99632.12
2019-04-28T01:29:29.532Z,99631.90
2019-04-28T01:32:15.456Z,99629.86
2019-04-28T01:34:43.872Z,99632.97
2019-04-28T01:37:12.258Z,99623.45
2019-04-28T01:39:41.233Z,99626.14
2019-04-28T01:42:10.658Z,99621.45
2019-04-28T01:44:39.632Z,99621.81
2019-04-28T01:47:08.056Z,99622.03
2019-04-28T01:49:36.456Z,99617.81
2019-04-28T01:52:04.997Z,99618.72
2019-04-28T01:54:33.377Z,99623.12
2019-04-28T01:57:01.789Z,99615.65
2019-04-28T01:59:30.422Z,99622.55
2019-04-28T02:02:00.122Z,99625.63
2019-04-28T02:04:32.116Z,99626.03
2019-04-28T02:06:59.814Z,99625.50
2019-04-28T02:09:29.685Z,99632.36
2019-04-28T02:11:58.175Z,99632.69
2019-04-28T02:14:26.555Z,99629.63
2019-04-28T02:16:54.957Z,99629.21
2019-04-28T02:19:23.381Z,99629.25
2019-04-28T02:21:55.872Z,99627.45
2019-04-28T02:24:31.684Z,99628.67
2019-04-28T02:27:00.971Z,99636.89
2019-04-28T02:29:30.291Z,99637.38
2019-04-28T02:32:01.913Z,99635.13
2019-04-28T02:34:31.184Z,99640.72
2019-04-28T02:37:01.390Z,99641.59
2019-04-28T02:39:31.202Z,99637.98
2019-04-28T02:42:01.393Z,99634.51
2019-04-28T02:44:34.116Z,99636.27
2019-04-28T02:47:00.780Z,99633.66
2019-04-28T02:49:33.996Z,99635.90
2019-04-28T02:52:04.113Z,99636.75
2019-04-28T02:54:32.495Z,99630.50
2019-04-28T02:57:01.415Z,99634.19
2019-04-28T02:59:30.529Z,99642.16
2019-04-28T03:02:00.659Z,99638.23
2019-04-28T03:04:30.831Z,99638.20
2019-04-28T03:07:01.331Z,99636.04
2019-04-28T03:09:30.553Z,99640.53
2019-04-28T03:12:01.430Z,99633.95
2019-04-28T03:14:30.650Z,99635.13
2019-04-28T03:17:00.846Z,99634.19
2019-04-28T03:19:33.788Z,99637.96
2019-04-28T03:22:01.314Z,99635.43
2019-04-28T03:24:31.530Z,99634.56
2019-04-28T03:27:07.103Z,99635.43
2019-04-28T03:29:50.437Z,99628.81
2019-04-28T03:32:37.097Z,99631.42
2019-04-28T03:34:53.735Z,99632.73
2019-04-28T03:37:23.943Z,99625.70
2019-04-28T03:39:51.166Z,99622.27
2019-04-28T03:42:21.559Z,99623.17
2019-04-28T03:44:51.032Z,99620.96
2019-04-28T03:47:21.438Z,99614.34
2019-04-28T03:49:50.741Z,99618.96
2019-04-28T03:52:21.358Z,99630.11
2019-04-28T03:54:50.813Z,99624.75
2019-04-28T03:57:21.498Z,99624.14
2019-04-28T03:59:51.160Z,99625.77
2019-04-28T04:02:22.972Z,99629.28
2019-04-28T04:04:52.665Z,99623.28
2019-04-28T04:07:21.517Z,99622.55
2019-04-28T04:09:57.968Z,99617.04
2019-04-28T04:12:41.199Z,99617.52
2019-04-28T04:15:28.031Z,99617.66
2019-04-28T04:18:07.060Z,99612.05
2019-04-28T04:20:35.459Z,99612.95
2019-04-28T04:23:03.841Z,99613.81
2019-04-28T04:25:32.230Z,99616.50
2019-04-28T04:28:03.693Z,99614.95
2019-04-28T04:30:31.315Z,99614.78
2019-04-28T04:33:01.222Z,99621.92
2019-04-28T04:35:31.624Z,99622.30
2019-04-28T04:38:00.607Z,99620.09
2019-04-28T04:40:31.614Z,99618.38
2019-04-28T04:43:01.536Z,99619.34
2019-04-28T04:45:30.590Z,99628.14
2019-04-28T04:48:00.581Z,99625.44
2019-04-28T04:50:31.310Z,99632.92
2019-04-28T04:53:02.339Z,99623.27
2019-04-28T04:55:30.841Z,99625.92
2019-04-28T04:58:00.833Z,99616.55
2019-04-28T05:00:33.803Z,99619.32
2019-04-28T05:03:07.105Z,99619.77
2019-04-28T05:05:40.438Z,99620.81
2019-04-28T05:08:10.704Z,99623.58
2019-04-28T05:10:40.346Z,99622.03
2019-04-28T05:13:10.192Z,99625.31
2019-04-28T05:15:40.064Z,99627.59
2019-04-28T05:18:10.142Z,99624.28
2019-04-28T05:20:40.387Z,99629.11
2019-04-28T05:23:13.451Z,99627.80
2019-04-28T05:25:43.738Z,99630.42
2019-04-28T05:28:12.138Z,99628.63
2019-04-28T05:30:42.941Z,99631.77
2019-04-28T05:33:12.299Z,99630.94
2019-04-28T05:35:50.103Z,99637.48
2019-04-28T05:38:20.120Z,99631.31
2019-04-28T05:40:49.831Z,99633.07
2019-04-28T05:43:19.585Z,99639.23
2019-04-28T05:45:49.861Z,99634.86
2019-04-28T05:48:20.087Z,99639.31
2019-04-28T05:50:52.666Z,99637.55
2019-04-28T05:53:22.866Z,99635.66
2019-04-28T05:56:10.762Z,99633.86
2019-04-28T05:58:46.388Z,99639.03
2019-04-28T06:01:16.409Z,99641.13
2019-04-28T06:03:45.766Z,99637.23
2019-04-28T06:06:14.241Z,99649.47
2019-04-28T06:08:44.274Z,99646.34
2019-04-28T06:11:32.580Z,99646.27
2019-04-28T06:14:01.303Z,99645.61
2019-04-28T06:16:30.520Z,99649.95
2019-04-28T06:18:59.970Z,99653.50
2019-04-28T06:21:28.616Z,99646.56
2019-04-28T06:23:57.010Z,99647.43
2019-04-28T06:26:25.476Z,99644.75
2019-04-28T06:28:53.855Z,99654.50
2019-04-28T06:31:22.237Z,99653.67
2019-04-28T06:33:50.834Z,99656.85
2019-04-28T06:36:20.280Z,99650.82
2019-04-28T06:38:48.657Z,99659.16
2019-04-28T06:41:17.055Z,99659.16
2019-04-28T06:43:45.433Z,99658.23
2019-04-28T06:46:13.818Z,99656.47
2019-04-28T06:48:42.232Z,99663.54
2019-04-28T06:51:10.621Z,99661.78
2019-04-28T06:53:39.024Z,99662.81
2019-04-28T06:56:07.459Z,99664.58
2019-04-28T06:58:35.843Z,99668.78
2019-04-28T07:01:04.300Z,99668.75
2019-04-28T07:03:32.727Z,99670.47
2019-04-28T07:06:01.108Z,99666.13
2019-04-28T07:08:29.497Z,99669.71
2019-04-28T07:10:57.984Z,99669.33
2019-04-28T07:13:26.704Z,99668.16
2019-04-28T07:15:55.151Z,99674.92
2019-04-28T07:18:23.574Z,99675.34
2019-04-28T07:20:56.359Z,99674.41
2019-04-28T07:23:24.761Z,99667.85
2019-04-28T07:25:53.536Z,99669.23
2019-04-28T07:28:21.917Z,99667.89
2019-04-28T07:30:50.305Z,99673.20
2019-04-28T07:33:18.720Z,99675.34
2019-04-28T07:35:47.105Z,99673.16
2019-04-28T07:38:15.496Z,99673.23
2019-04-28T07:40:43.899Z,99670.20
2019-04-28T07:43:12.276Z,99668.60
2019-04-28T07:45:40.662Z,99670.12
2019-04-28T07:48:09.833Z,99675.27
2019-04-28T07:50:38.266Z,99671.78
2019-04-28T07:53:23.635Z,99677.16
2019-04-28T07:55:52.038Z,99675.47
2019-04-28T07:58:21.350Z,99677.09
2019-04-28T08:00:49.832Z,99673.09
2019-04-28T08:03:18.224Z,99679.68
2019-04-28T08:05:46.679Z,99676.33
2019-04-28T08:08:15.082Z,99675.50
2019-04-28T08:10:43.480Z,99676.84
2019-04-28T08:13:11.881Z,99674.78
2019-04-28T08:15:40.282Z,99675.09
2019-04-28T08:18:08.666Z,99674.07
2019-04-28T08:20:37.059Z,99671.21
2019-04-28T08:23:05.543Z,99677.53
2019-04-28T08:25:33.930Z,99673.34
2019-04-28T08:28:02.341Z,99671.84
2019-04-28T08:30:30.739Z,99668.95
2019-04-28T08:33:03.673Z,99674.20
2019-04-28T08:35:32.055Z,99670.33
2019-04-28T08:38:00.474Z,99673.73
2019-04-28T08:40:28.843Z,99675.38
2019-04-28T08:42:57.235Z,99678.84
2019-04-28T08:45:25.635Z,99674.97
2019-04-28T08:47:54.021Z,99676.36
2019-04-28T08:50:22.403Z,99676.06
2019-04-28T08:52:51.124Z,99668.92
2019-04-28T08:55:19.509Z,99666.91
2019-04-28T08:57:47.907Z,99668.02
2019-04-28T09:00:19.027Z,99667.23
2019-04-28T09:02:47.421Z,99671.25
2019-04-28T09:05:15.878Z,99672.61
2019-04-28T09:07:44.283Z,99672.12
2019-04-28T09:10:12.667Z,99673.72
2019-04-28T09:12:41.067Z,99672.41
2019-04-28T09:15:09.809Z,99679.40
2019-04-28T09:17:38.191Z,99676.84
2019-04-28T09:20:07.421Z,99679.18
2019-04-28T09:22:35.837Z,99680.45
2019-04-28T09:25:05.851Z,99676.50
2019-04-28T09:27:34.314Z,99676.13
2019-04-28T09:30:03.556Z,99680.37
2019-04-28T09:32:31.955Z,99681.45
2019-04-28T09:35:00.335Z,99681.52
2019-04-28T09:37:28.747Z,99687.67
2019-04-28T09:39:58.776Z,99684.53
2019-04-28T09:42:31.974Z,99686.73
2019-04-28T09:45:19.014Z,99690.31
2019-04-28T09:47:47.412Z,99690.79
2019-04-28T09:50:15.801Z,99690.54
2019-04-28T09:52:44.481Z,99697.11
2019-04-28T09:55:13.149Z,99700.47
2019-04-28T09:57:41.599Z,99699.57
2019-04-28T10:00:11.367Z,99693.36
2019-04-28T10:02:39.757Z,99694.22
2019-04-28T10:05:08.990Z,99699.61
2019-04-28T10:07:37.408Z,99705.34
2019-04-28T10:10:09.653Z,99699.70
2019-04-28T10:12:38.067Z,99701.93
2019-04-28T10:15:09.041Z,99704.12
2019-04-28T10:17:37.859Z,99698.38
2019-04-28T10:20:07.590Z,99698.30
2019-04-28T10:22:36.129Z,99700.88
2019-04-28T10:25:07.966Z,99699.45
2019-04-28T10:27:36.424Z,99700.59
2019-04-28T10:30:09.526Z,99695.70
2019-04-28T10:32:38.477Z,99698.69
2019-04-28T10:35:07.791Z,99694.30
2019-04-28T10:37:36.276Z,99689.55
2019-04-28T10:40:14.309Z,99687.92
2019-04-28T10:42:42.799Z,99687.20
2019-04-28T10:45:12.965Z,99685.77
2019-04-28T10:47:41.426Z,99685.03
2019-04-28T10:50:10.360Z,99682.14
2019-04-28T10:52:38.760Z,99683.67
2019-04-28T10:55:07.282Z,99676.89
2019-04-28T10:57:35.687Z,99668.31
2019-04-28T11:00:06.399Z,99666.67
2019-04-28T11:02:34.779Z,99663.19
2019-04-28T11:05:09.035Z,99669.36
2019-04-28T11:07:37.631Z,99665.05
2019-04-28T11:10:15.233Z,99665.06
2019-04-28T11:12:43.615Z,99659.44
2019-04-28T11:15:14.092Z,99656.38
2019-04-28T11:17:42.570Z,99654.16
2019-04-28T11:20:11.026Z,99660.78
2019-04-28T11:22:39.421Z,99655.98
2019-04-28T11:25:08.182Z,99659.47
2019-04-28T11:27:36.684Z,99658.21
2019-04-28T11:30:08.088Z,99648.12
2019-04-28T11:32:37.654Z,99650.33
2019-04-28T11:35:20.608Z,99648.55
2019-04-28T11:37:38.883Z,99650.30
2019-04-28T11:40:07.440Z,99653.84
2019-04-28T11:42:35.825Z,99655.61
2019-04-28T11:45:05.280Z,99650.32
2019-04-28T11:47:33.686Z,99653.84
2019-04-28T11:50:02.329Z,99657.83
2019-04-28T11:52:31.527Z,99648.14
2019-04-28T11:54:59.957Z,99645.45
2019-04-28T11:57:28.364Z,99647.64
2019-04-28T11:59:56.909Z,99640.63
2019-04-28T12:02:25.388Z,99643.30
2019-04-28T12:04:55.368Z,99646.81
2019-04-28T12:07:23.889Z,99641.08
2019-04-28T12:10:06.571Z,99641.52
2019-04-28T12:12:53.998Z,99637.99
2019-04-28T12:15:24.056Z,99633.59
2019-04-28T12:17:56.950Z,99634.94
2019-04-28T12:20:26.215Z,99629.63
2019-04-28T12:22:54.629Z,99623.91
2019-04-28T12:25:23.028Z,99633.61
2019-04-28T12:27:51.454Z,99630.09
2019-04-28T12:30:19.901Z,99633.14
2019-04-28T12:32:48.291Z,99634.43
2019-04-28T12:35:18.442Z,99631.75
2019-04-28T12:37:46.968Z,99628.20
2019-04-28T12:40:15.696Z,99629.06
2019-04-28T12:42:44.094Z,99632.52
2019-04-28T12:45:12.648Z,99634.67
2019-04-28T12:47:41.043Z,99637.73
2019-04-28T12:50:11.226Z,99636.41
2019-04-28T12:52:39.712Z,99634.16
2019-04-28T12:55:08.376Z,99639.45
2019-04-28T12:57:37.091Z,99642.52
2019-04-28T13:00:26.833Z,99645.56
2019-04-28T13:02:56.857Z,99641.20
2019-04-28T13:05:25.255Z,99644.77
2019-04-28T13:07:53.665Z,99645.19
2019-04-28T13:10:22.052Z,99649.61
2019-04-28T13:12:50.453Z,99643.91
2019-04-28T13:15:18.940Z,99648.80
2019-04-28T13:17:47.332Z,99647.41
2019-04-28T13:20:15.784Z,99648.24
2019-04-28T13:22:44.531Z,99651.37
2019-04-28T13:25:13.078Z,99649.27
2019-04-28T13:27:41.437Z,99647.48
2019-04-28T13:30:10.086Z,99650.19
2019-04-28T13:32:38.482Z,99649.76
2019-04-28T13:35:07.311Z,99650.59
2019-04-28T13:37:35.690Z,99649.64
2019-04-28T13:40:07.471Z,99654.44
2019-04-28T13:42:35.880Z,99655.26
2019-04-28T13:45:08.160Z,99655.14
2019-04-28T13:47:36.663Z,99648.87
2019-04-28T13:50:14.517Z,99648.97
2019-04-28T13:52:42.921Z,99645.98
2019-04-28T13:55:18.855Z,99649.61
2019-04-28T13:57:47.203Z,99649.20
2019-04-28T14:00:33.770Z,99658.41
2019-04-28T14:03:03.815Z,99653.52
2019-04-28T14:05:33.831Z,99652.20
2019-04-28T14:08:02.718Z,99657.89
2019-04-28T14:10:31.444Z,99653.03
2019-04-28T14:12:59.846Z,99656.56
2019-04-28T14:15:28.279Z,99655.57
2019-04-28T14:17:56.620Z,99655.86
2019-04-28T14:20:25.011Z,99653.53
2019-04-28T14:22:53.711Z,99653.48
2019-04-28T14:25:22.216Z,99651.80
2019-04-28T14:27:50.583Z,99651.20
2019-04-28T14:30:19.121Z,99647.14
2019-04-28T14:32:47.503Z,99645.86
2019-04-28T14:35:16.042Z,99650.34
2019-04-28T14:37:44.596Z,99653.59
2019-04-28T14:40:13.242Z,99649.69
2019-04-28T14:42:41.637Z,99654.24
2019-04-28T14:45:11.240Z,99655.23
2019-04-28T14:47:39.737Z,99658.66
2019-04-28T14:50:08.312Z,99654.73
2019-04-28T14:52:36.720Z,99660.47
2019-04-28T14:55:08.377Z,99657.32
2019-04-28T14:57:37.004Z,99657.73
2019-04-28T15:00:07.781Z,99661.17
2019-04-28T15:02:52.899Z,99653.25
2019-04-28T15:05:23.010Z,99656.67
2019-04-28T15:08:09.534Z,99657.45
2019-04-28T15:10:55.704Z,99651.95
2019-04-28T15:13:25.068Z,99651.03
2019-04-28T15:15:53.455Z,99653.09
2019-04-28T15:18:21.923Z,99655.55
2019-04-28T15:20:50.311Z,99651.35
2019-04-28T15:23:19.660Z,99653.30
2019-04-28T15:25:48.072Z,99653.12
2019-04-28T15:28:16.720Z,99658.87
2019-04-28T15:30:45.121Z,99669.95
2019-04-28T15:33:13.599Z,99669.95
2019-04-28T15:35:42.067Z,99667.30
2019-04-28T15:38:10.449Z,99670.16
2019-04-28T15:40:39.171Z,99666.77
2019-04-28T15:43:07.566Z,99668.63
2019-04-28T15:45:35.956Z,99667.32
2019-04-28T15:48:04.423Z,99659.87
2019-04-28T15:50:32.820Z,99669.96
2019-04-28T15:53:01.268Z,99665.98
2019-04-28T15:55:37.385Z,99672.13
2019-04-28T15:58:23.809Z,99672.97
2019-04-28T16:00:52.216Z,99669.89
2019-04-28T16:03:20.610Z,99674.27
2019-04-28T16:05:49.008Z,99673.84
2019-04-28T16:08:17.421Z,99672.52
2019-04-28T16:10:45.816Z,99674.27
2019-04-28T16:13:14.202Z,99676.51
2019-04-28T16:15:42.618Z,99673.38
2019-04-28T16:18:11.009Z,99677.34
2019-04-28T16:20:39.474Z,99679.14
2019-04-28T16:23:07.961Z,99680.87
2019-04-28T16:25:37.296Z,99677.33
2019-04-28T16:28:05.678Z,99681.80
2019-04-28T16:30:34.377Z,99678.30
2019-04-28T16:33:02.760Z,99680.06
2019-04-28T16:35:31.159Z,99678.75
2019-04-28T16:37:59.558Z,99682.75
2019-04-28T16:40:30.512Z,99680.11
2019-04-28T16:43:01.803Z,99684.08
2019-04-28T16:45:30.215Z,99681.91
2019-04-28T16:47:58.603Z,99697.80
2019-04-28T16:50:26.985Z,99697.83
2019-04-28T16:52:55.478Z,99701.33
2019-04-28T16:55:37.470Z,99696.05
2019-04-28T16:58:07.529Z,99697.83
2019-04-28T17:00:53.501Z,99700.90
2019-04-28T17:03:22.364Z,99702.25
2019-04-28T17:05:50.760Z,99710.65
2019-04-28T17:08:19.392Z,99720.77
2019-04-28T17:10:47.808Z,99718.08
2019-04-28T17:13:16.199Z,99719.77
2019-04-28T17:15:44.654Z,99710.04
2019-04-28T17:18:13.086Z,99713.09
2019-04-28T17:20:41.465Z,99716.09
2019-04-28T17:23:09.854Z,99712.11
2019-04-28T17:25:38.253Z,99719.55
2019-04-28T17:28:07.089Z,99721.29
2019-04-28T17:30:35.547Z,99725.58
2019-04-28T17:33:04.043Z,99729.50
2019-04-28T17:35:33.107Z,99727.30
2019-04-28T17:38:06.822Z,99736.09
2019-04-28T17:40:32.237Z,99739.58
2019-04-28T17:43:00.596Z,99737.74
2019-04-28T17:45:28.983Z,99751.69
2019-04-28T17:47:59.179Z,99754.72
2019-04-28T17:50:29.703Z,99758.17
2019-04-28T17:52:58.069Z,99762.47
2019-04-28T17:55:26.479Z,99765.05
2019-04-28T17:57:54.874Z,99764.54
2019-04-28T18:00:39.848Z,99776.80
2019-04-28T18:03:15.774Z,99780.27
2019-04-28T18:05:58.130Z,99777.61
2019-04-28T18:08:26.795Z,99781.50
2019-04-28T18:10:55.181Z,99782.73
2019-04-28T18:13:23.607Z,99790.11
2019-04-28T18:15:56.364Z,99788.80
2019-04-28T18:18:28.809Z,99792.26
2019-04-28T18:20:57.217Z,99795.36
2019-04-28T18:23:25.606Z,99803.00
2019-04-28T18:25:54.070Z,99807.11
2019-04-28T18:28:22.427Z,99815.96
2019-04-28T18:30:52.448Z,99820.77
2019-04-28T18:33:28.669Z,99817.20
2019-04-28T18:35:58.833Z,99810.09
2019-04-28T18:38:35.087Z,99819.22
2019-04-28T18:41:06.649Z,99828.74
2019-04-28T18:43:45.190Z,99832.55
2019-04-28T18:46:16.470Z,99842.02
2019-04-28T18:48:44.989Z,99848.91
2019-04-28T18:51:13.442Z,99846.16
2019-04-28T18:53:44.406Z,99856.19
2019-04-28T18:56:11.968Z,99860.48
2019-04-28T18:58:40.358Z,99862.95
2019-04-28T19:01:10.406Z,99870.23
2019-04-28T19:03:38.798Z,99869.17
2019-04-28T19:06:07.179Z,99874.30
2019-04-28T19:08:48.536Z,99867.55
2019-04-28T19:11:25.424Z,99876.25
2019-04-28T19:13:55.497Z,99878.79
2019-04-28T19:16:41.709Z,99884.34
2019-04-28T19:19:17.335Z,99881.14
2019-04-28T19:21:56.101Z,99887.16
2019-04-28T19:24:25.725Z,99888.45
2019-04-28T19:26:54.545Z,99889.77
2019-04-28T19:29:22.999Z,99896.33
2019-04-28T19:31:51.426Z,99898.47
2019-04-28T19:34:19.800Z,99902.83
2019-04-28T19:36:48.183Z,99906.32
2019-04-28T19:39:16.597Z,99912.81
2019-04-28T19:41:44.979Z,99913.59
2019-04-28T19:44:13.357Z,99921.43
2019-04-28T19:46:41.849Z,99918.94
2019-04-28T19:49:10.298Z,99925.31
2019-04-28T19:51:38.681Z,99933.66
2019-04-28T19:54:07.669Z,99936.14
2019-04-28T19:56:43.483Z,99941.84
2019-04-28T19:59:16.446Z,99944.41
2019-04-28T20:01:44.831Z,99948.67
2019-04-28T20:04:13.211Z,99949.66
2019-04-28T20:06:41.616Z,99957.61
2019-04-28T20:09:10.157Z,99957.58
2019-04-28T20:11:38.536Z,99955.76
2019-04-28T20:14:07.012Z,99957.88
2019-04-28T20:16:35.403Z,99960.44
2019-04-28T20:19:03.858Z,99959.12
2019-04-28T20:21:32.344Z,99958.33
2019-04-28T20:24:00.737Z,99955.19
2019-04-28T20:26:29.142Z,99961.59
2019-04-28T20:28:57.647Z,99959.20
2019-04-28T20:31:26.041Z,99963.01
2019-04-28T20:33:54.425Z,99957.75
2019-04-28T20:36:33.222Z,99959.91
2019-04-28T20:39:03.227Z,99959.80
2019-04-28T20:41:31.625Z,99963.67
2019-04-28T20:44:00.070Z,99968.86
2019-04-28T20:46:28.466Z,99961.74
2019-04-28T20:48:56.863Z,99970.00
2019-04-28T20:51:25.384Z,99975.31
2019-04-28T20:53:54.996Z,99976.18
2019-04-28T20:56:23.417Z,99974.42
2019-04-28T20:58:51.915Z,99978.39
2019-04-28T21:01:20.312Z,99976.63
2019-04-28T21:03:48.707Z,99976.73
2019-04-28T21:06:17.139Z,99979.50
2019-04-28T21:08:45.519Z,99977.25
2019-04-28T21:11:14.113Z,99982.44
2019-04-28T21:13:42.547Z,99982.27
2019-04-28T21:16:10.941Z,99982.88
2019-04-28T21:18:39.331Z,99988.39
2019-04-28T21:21:07.744Z,99988.22
2019-04-28T21:23:36.138Z,99989.75
2019-04-28T21:26:04.526Z,99987.31
2019-04-28T21:28:33.132Z,99995.36
2019-04-28T21:31:01.602Z,99995.03
2019-04-28T21:33:29.987Z,100002.58
2019-04-28T21:35:58.391Z,100003.59
2019-04-28T21:38:26.783Z,100011.64
2019-04-28T21:40:55.200Z,100010.98
2019-04-28T21:43:30.657Z,100009.44
2019-04-28T21:46:17.228Z,100013.65
2019-04-28T21:48:53.047Z,100005.65
2019-04-28T21:51:21.429Z,100011.60
2019-04-28T21:53:49.999Z,100015.21
2019-04-28T21:56:18.393Z,100018.52
2019-04-28T21:58:46.853Z,100014.22
2019-04-28T22:01:18.803Z,100014.18
2019-04-28T22:03:47.480Z,100017.24
2019-04-28T22:06:15.940Z,100019.80
2019-04-28T22:08:44.489Z,100023.42
2019-04-28T22:11:12.880Z,100024.38
2019-04-28T22:13:41.273Z,100023.27
2019-04-28T22:16:09.713Z,100027.85
2019-04-28T22:18:38.103Z,100031.48
2019-04-28T22:21:06.583Z,100029.12
2019-04-28T22:23:53.015Z,100028.67
2019-04-28T22:26:39.221Z,100033.75
2019-04-28T22:29:07.624Z,100034.95
2019-04-28T22:31:36.012Z,100039.12
2019-04-28T22:34:04.472Z,100039.52
2019-04-28T22:36:33.308Z,100037.27
2019-04-28T22:39:01.700Z,100035.30
2019-04-28T22:41:30.180Z,100033.52
2019-04-28T22:43:58.606Z,100038.19
2019-04-28T22:46:26.992Z,100039.91
2019-04-28T22:48:57.096Z,100042.70
2019-04-28T22:51:25.575Z,100040.82
2019-04-28T22:53:53.959Z,100039.41
2019-04-28T22:56:24.001Z,100041.28
2019-04-28T22:58:54.155Z,100042.23
2019-04-28T23:01:27.025Z,100042.86
2019-04-28T23:04:03.076Z,100053.48
2019-04-28T23:06:31.611Z,100067.37
2019-04-28T23:09:00.002Z,100070.43
2019-04-28T23:11:28.407Z,100064.02
2019-04-28T23:13:56.803Z,100058.64
2019-04-28T23:16:25.204Z,100062.80
2019-04-28T23:18:53.750Z,100062.81
2019-04-28T23:21:32.913Z,100060.01
2019-04-28T23:24:01.428Z,100065.86
2019-04-28T23:26:29.954Z,100072.31
2019-04-28T23:28:58.352Z,100061.27
2019-04-28T23:31:26.765Z,100062.66
2019-04-28T23:33:55.157Z,100071.94
2019-04-28T23:36:23.599Z,100065.67
2019-04-28T23:38:52.015Z,100070.05
2019-04-28T23:41:31.229Z,100069.21
2019-04-28T23:43:59.650Z,100075.27
2019-04-28T23:46:29.674Z,100079.97
2019-04-28T23:48:58.130Z,100079.06
2019-04-28T23:51:28.188Z,100079.06
2019-04-28T23:54:01.150Z,100076.95
2019-04-28T23:56:29.528Z,100077.59
2019-04-28T23:58:57.951Z,100078.09
